# Il y a Date Account Device PM COV Température Humidité Mémo
2 837 344 8 jours 12 septembre 2019 21:51:36 Rva demo_rva_3 (id:22) 1.0 26 25.18 °C 44.48 %
2 837 341 8 jours 12 septembre 2019 21:50:06 Rva demo_rva_3 (id:22) 3.0 26 25.2 °C 44.45 %
2 837 337 8 jours 12 septembre 2019 21:48:26 Rva demo_rva_3 (id:22) 1.0 26 25.18 °C 44.34 %
2 837 335 8 jours 12 septembre 2019 21:45:54 Rva demo_rva_3 (id:22) 1.0 27 25.21 °C 44.25 %
2 837 330 8 jours 12 septembre 2019 21:42:25 Rva demo_rva_3 (id:22) 1.0 27 25.17 °C 44.2 %
2 837 326 8 jours 12 septembre 2019 21:39:26 Rva demo_rva_3 (id:22) 1.0 28 25.17 °C 44.13 %
2 837 320 8 jours 12 septembre 2019 21:31:18 Rva demo_rva_3 (id:22) 2.0 30 25.18 °C 43.97 %
2 837 315 8 jours 12 septembre 2019 21:27:32 Rva demo_rva_3 (id:22) 1.0 30 25.17 °C 43.99 %
2 837 312 8 jours 12 septembre 2019 21:24:43 Rva demo_rva_3 (id:22) 4.0 32 25.18 °C 43.92 %
2 837 310 8 jours 12 septembre 2019 21:24:40 Rva ak-47 (id:15) 9.0 29 23.91 °C 52.96 %
2 837 308 8 jours 12 septembre 2019 21:23:14 Rva ak-47 (id:15) 9.0 23 23.92 °C 52.87 %
2 837 307 8 jours 12 septembre 2019 21:21:38 Rva demo_rva_3 (id:22) 3.0 32 25.17 °C 43.9 %
2 837 306 8 jours 12 septembre 2019 21:21:37 Rva ak-47 (id:15) 10.0 29 23.94 °C 52.75 %
2 837 302 8 jours 12 septembre 2019 21:19:42 Rva ak-47 (id:15) 10.0 26 23.91 °C 52.96 %
2 837 301 8 jours 12 septembre 2019 21:18:58 Rva ak-47 (id:15) 10.0 26 23.94 °C 52.83 %
2 837 299 8 jours 12 septembre 2019 21:18:40 Rva demo_rva_3 (id:22) 1.0 33 25.17 °C 43.92 %
2 837 298 8 jours 12 septembre 2019 21:18:37 Rva ak-47 (id:15) 10.0 29 23.94 °C 52.84 %
2 837 296 8 jours 12 septembre 2019 21:16:09 Rva ak-47 (id:15) 8.0 31 23.95 °C 52.77 %
2 837 295 8 jours 12 septembre 2019 21:16:00 Rva ak-47 (id:15) 9.0 26 23.9 °C 52.91 %
2 837 293 8 jours 12 septembre 2019 21:15:39 Rva demo_rva_3 (id:22) 2.0 34 25.18 °C 43.85 %
2 837 290 8 jours 12 septembre 2019 21:14:24 Rva ak-47 (id:15) 9.0 28 23.99 °C 52.71 %
2 837 287 8 jours 12 septembre 2019 21:12:34 Rva demo_rva_3 (id:22) 3.0 35 25.17 °C 43.75 %
2 837 284 8 jours 12 septembre 2019 21:09:30 Rva demo_rva_3 (id:22) 3.0 39 25.15 °C 43.65 %
2 837 280 8 jours 12 septembre 2019 21:06:30 Rva demo_rva_3 (id:22) 3.0 36 25.15 °C 43.61 %
2 837 277 8 jours 12 septembre 2019 21:03:33 Rva demo_rva_3 (id:22) 3.0 31 25.17 °C 43.41 %
2 837 274 8 jours 12 septembre 2019 21:01:27 Rva demo_rva_3 (id:22) 2.0 29 25.14 °C 43.37 %
2 837 270 8 jours 12 septembre 2019 20:57:22 Rva demo_rva_3 (id:22) 3.0 29 25.11 °C 43.38 %
2 837 267 8 jours 12 septembre 2019 20:54:58 Rva demo_rva_3 (id:22) 2.0 30 25.11 °C 43.56 %
2 837 264 8 jours 12 septembre 2019 20:51:40 Rva demo_rva_3 (id:22) 1.0 30 25.11 °C 43.7 %
2 837 259 8 jours 12 septembre 2019 20:48:38 Rva demo_rva_3 (id:22) 2.0 31 25.08 °C 43.42 %
2 837 256 8 jours 12 septembre 2019 20:45:46 Rva demo_rva_3 (id:22) 2.0 32 25.1 °C 42.91 %
2 837 252 8 jours 12 septembre 2019 20:42:35 Rva demo_rva_3 (id:22) 1.0 32 25.11 °C 42.98 %
2 837 249 8 jours 12 septembre 2019 20:39:31 Rva demo_rva_3 (id:22) 3.0 33 25.12 °C 42.66 %
2 837 244 8 jours 12 septembre 2019 20:36:28 Rva demo_rva_3 (id:22) 1.0 35 25.12 °C 42.45 %
2 837 242 8 jours 12 septembre 2019 20:33:43 Rva demo_rva_3 (id:22) 1.0 37 25.11 °C 42.22 %
2 837 238 8 jours 12 septembre 2019 20:31:11 Rva demo_rva_3 (id:22) 2.0 37 25.1 °C 42.39 %
2 837 235 8 jours 12 septembre 2019 20:27:33 Rva demo_rva_3 (id:22) 2.0 36 25.11 °C 42.37 %
2 837 230 8 jours 12 septembre 2019 20:24:33 Rva demo_rva_3 (id:22) 2.0 38 25.11 °C 42.22 %
2 837 227 8 jours 12 septembre 2019 20:21:25 Rva demo_rva_3 (id:22) 1.0 40 25.17 °C 41.9 %
2 837 224 8 jours 12 septembre 2019 20:18:39 Rva demo_rva_3 (id:22) 1.0 46 25.17 °C 40.9 %
2 837 219 8 jours 12 septembre 2019 20:15:40 Rva demo_rva_3 (id:22) 0.0 46 25.12 °C 40.84 %
2 837 215 8 jours 12 septembre 2019 20:12:30 Rva demo_rva_3 (id:22) 0.0 49 25.12 °C 40.66 %
2 837 213 8 jours 12 septembre 2019 20:09:49 Rva demo_rva_3 (id:22) 1.0 49 25.17 °C 40.66 %
2 837 208 8 jours 12 septembre 2019 20:06:30 Rva demo_rva_3 (id:22) 0.0 53 25.17 °C 40.02 %
2 837 206 8 jours 12 septembre 2019 20:03:37 Rva demo_rva_3 (id:22) 1.0 53 25.17 °C 39.63 %
2 837 202 8 jours 12 septembre 2019 20:01:21 Rva demo_rva_3 (id:22) 2.0 53 25.15 °C 39.67 %
2 837 199 8 jours 12 septembre 2019 19:57:36 Rva demo_rva_3 (id:22) 0.0 53 25.17 °C 39.6 %
2 837 193 8 jours 12 septembre 2019 19:54:40 Rva demo_rva_3 (id:22) 1.0 52 25.17 °C 39.66 %
2 837 192 8 jours 12 septembre 2019 19:51:31 Rva demo_rva_3 (id:22) 1.0 52 25.15 °C 39.65 %
2 837 188 8 jours 12 septembre 2019 19:48:44 Rva demo_rva_3 (id:22) 0.0 53 25.17 °C 39.64 %
2 837 184 8 jours 12 septembre 2019 19:45:54 Rva demo_rva_3 (id:22) 2.0 52 25.17 °C 39.71 %
2 837 179 8 jours 12 septembre 2019 19:42:37 Rva demo_rva_3 (id:22) 1.0 52 25.17 °C 39.68 %
2 837 177 8 jours 12 septembre 2019 19:39:42 Rva demo_rva_3 (id:22) 1.0 52 25.17 °C 39.71 %
2 837 173 8 jours 12 septembre 2019 19:36:35 Rva demo_rva_3 (id:22) 1.0 51 25.12 °C 39.72 %
2 837 169 8 jours 12 septembre 2019 19:33:32 Rva demo_rva_3 (id:22) 1.0 51 25.14 °C 39.72 %
2 837 167 8 jours 12 septembre 2019 19:31:11 Rva demo_rva_3 (id:22) 0.0 51 25.15 °C 39.73 %
2 837 162 8 jours 12 septembre 2019 19:27:34 Rva demo_rva_3 (id:22) 0.0 51 25.15 °C 39.72 %
2 837 158 8 jours 12 septembre 2019 19:24:48 Rva demo_rva_3 (id:22) 0.0 51 25.15 °C 39.77 %
2 837 156 8 jours 12 septembre 2019 19:21:35 Rva demo_rva_3 (id:22) 1.0 51 25.14 °C 39.79 %
2 837 152 8 jours 12 septembre 2019 19:18:39 Rva demo_rva_3 (id:22) 0.0 50 25.12 °C 39.73 %
2 837 148 8 jours 12 septembre 2019 19:15:47 Rva demo_rva_3 (id:22) 1.0 50 25.12 °C 39.81 %
2 837 144 8 jours 12 septembre 2019 19:12:27 Rva demo_rva_3 (id:22) 0.0 50 25.14 °C 39.81 %
2 837 141 8 jours 12 septembre 2019 19:09:35 Rva demo_rva_3 (id:22) 0.0 50 25.15 °C 39.83 %
2 837 137 8 jours 12 septembre 2019 19:06:26 Rva demo_rva_3 (id:22) 0.0 49 25.17 °C 39.88 %
2 837 134 8 jours 12 septembre 2019 19:03:33 Rva demo_rva_3 (id:22) 0.0 50 25.14 °C 39.81 %
2 837 130 8 jours 12 septembre 2019 19:01:25 Rva demo_rva_3 (id:22) 0.0 49 25.14 °C 39.87 %
2 837 127 8 jours 12 septembre 2019 18:57:41 Rva demo_rva_3 (id:22) 0.0 50 25.14 °C 39.88 %
2 837 122 8 jours 12 septembre 2019 18:54:40 Rva demo_rva_3 (id:22) 0.0 49 25.14 °C 39.87 %
2 837 119 8 jours 12 septembre 2019 18:51:33 Rva demo_rva_3 (id:22) 1.0 50 25.17 °C 39.83 %
2 837 115 8 jours 12 septembre 2019 18:48:40 Rva demo_rva_3 (id:22) 0.0 50 25.17 °C 39.81 %
2 837 112 8 jours 12 septembre 2019 18:45:53 Rva demo_rva_3 (id:22) 1.0 50 25.14 °C 39.87 %
2 837 107 8 jours 12 septembre 2019 18:42:30 Rva demo_rva_3 (id:22) 1.0 49 25.15 °C 39.84 %
2 837 105 8 jours 12 septembre 2019 18:39:44 Rva demo_rva_3 (id:22) 0.0 49 25.15 °C 39.91 %
2 837 100 8 jours 12 septembre 2019 18:36:31 Rva demo_rva_3 (id:22) 1.0 49 25.18 °C 39.87 %
2 837 098 8 jours 12 septembre 2019 18:33:38 Rva demo_rva_3 (id:22) 0.0 49 25.18 °C 39.87 %
2 837 094 8 jours 12 septembre 2019 18:31:13 Rva demo_rva_3 (id:22) 0.0 48 25.15 °C 39.91 %
2 837 091 8 jours 12 septembre 2019 18:27:33 Rva demo_rva_3 (id:22) 1.0 48 25.15 °C 39.87 %
2 837 087 8 jours 12 septembre 2019 18:24:50 Rva demo_rva_3 (id:22) 0.0 49 25.15 °C 39.84 %
2 837 083 8 jours 12 septembre 2019 18:21:26 Rva demo_rva_3 (id:22) 1.0 48 25.14 °C 39.91 %
2 837 079 8 jours 12 septembre 2019 18:18:37 Rva demo_rva_3 (id:22) 0.0 48 25.15 °C 39.88 %
2 837 076 8 jours 12 septembre 2019 18:15:45 Rva demo_rva_3 (id:22) 1.0 48 25.17 °C 39.91 %
2 837 072 8 jours 12 septembre 2019 18:12:33 Rva demo_rva_3 (id:22) 0.0 48 25.12 °C 39.91 %
2 837 069 8 jours 12 septembre 2019 18:09:43 Rva demo_rva_3 (id:22) 0.0 48 25.17 °C 39.98 %
2 837 065 8 jours 12 septembre 2019 18:06:39 Rva demo_rva_3 (id:22) 0.0 48 25.14 °C 39.93 %
2 837 061 8 jours 12 septembre 2019 18:03:34 Rva demo_rva_3 (id:22) 0.0 48 25.14 °C 39.92 %
2 837 059 8 jours 12 septembre 2019 18:01:23 Rva demo_rva_3 (id:22) 0.0 48 25.15 °C 39.97 %
2 837 055 8 jours 12 septembre 2019 17:57:32 Rva demo_rva_3 (id:22) 0.0 47 25.15 °C 39.98 %
2 837 052 8 jours 12 septembre 2019 17:54:46 Rva demo_rva_3 (id:22) 0.0 48 25.15 °C 40.04 %
2 837 049 8 jours 12 septembre 2019 17:51:41 Rva demo_rva_3 (id:22) 1.0 48 25.15 °C 40.0 %
2 837 043 8 jours 12 septembre 2019 17:48:36 Rva demo_rva_3 (id:22) 0.0 48 25.15 °C 40.02 %
2 837 041 8 jours 12 septembre 2019 17:45:47 Rva demo_rva_3 (id:22) 0.0 47 25.14 °C 40.04 %
2 837 037 8 jours 12 septembre 2019 17:42:38 Rva demo_rva_3 (id:22) 0.0 48 25.17 °C 40.05 %
2 837 033 8 jours 12 septembre 2019 17:39:22 Rva demo_rva_3 (id:22) 0.0 48 25.17 °C 40.02 %
2 837 030 8 jours 12 septembre 2019 17:36:30 Rva demo_rva_3 (id:22) 1.0 47 25.15 °C 40.06 %
2 837 026 8 jours 12 septembre 2019 17:33:30 Rva demo_rva_3 (id:22) 1.0 47 25.12 °C 40.1 %
2 837 023 8 jours 12 septembre 2019 17:31:12 Rva demo_rva_3 (id:22) 1.0 47 25.14 °C 40.09 %
2 837 019 8 jours 12 septembre 2019 17:27:26 Rva demo_rva_3 (id:22) 0.0 47 25.14 °C 40.14 %
2 837 014 8 jours 12 septembre 2019 17:24:21 Rva demo_rva_3 (id:22) 0.0 47 25.12 °C 40.13 %
2 837 013 8 jours 12 septembre 2019 17:21:25 Rva demo_rva_3 (id:22) 1.0 47 25.15 °C 40.13 %
2 837 007 8 jours 12 septembre 2019 17:18:22 Rva demo_rva_3 (id:22) 0.0 47 25.14 °C 40.17 %
2 837 005 8 jours 12 septembre 2019 17:15:44 Rva demo_rva_3 (id:22) 0.0 46 25.14 °C 40.17 %
2 837 001 8 jours 12 septembre 2019 17:12:31 Rva demo_rva_3 (id:22) 0.0 46 25.12 °C 40.18 %
2 836 997 8 jours 12 septembre 2019 17:09:25 Rva demo_rva_3 (id:22) 1.0 47 25.14 °C 40.23 %
2 836 994 8 jours 12 septembre 2019 17:06:28 Rva demo_rva_3 (id:22) 1.0 47 25.11 °C 40.23 %
2 836 990 8 jours 12 septembre 2019 17:03:34 Rva demo_rva_3 (id:22) 0.0 46 25.12 °C 40.21 %
2 836 987 8 jours 12 septembre 2019 17:01:14 Rva demo_rva_3 (id:22) 1.0 47 25.12 °C 40.22 %
2 836 982 8 jours 12 septembre 2019 16:57:23 Rva demo_rva_3 (id:22) 1.0 47 25.11 °C 40.21 %
2 836 978 8 jours 12 septembre 2019 16:54:24 Rva demo_rva_3 (id:22) 0.0 46 25.12 °C 40.22 %
2 836 977 8 jours 12 septembre 2019 16:51:34 Rva demo_rva_3 (id:22) 1.0 47 25.12 °C 40.27 %
2 836 971 8 jours 12 septembre 2019 16:48:26 Rva demo_rva_3 (id:22) 1.0 46 25.12 °C 40.26 %
2 836 969 8 jours 12 septembre 2019 16:45:54 Rva demo_rva_3 (id:22) 1.0 46 25.14 °C 40.2 %
2 836 965 8 jours 12 septembre 2019 16:42:26 Rva demo_rva_3 (id:22) 0.0 46 25.12 °C 40.25 %
2 836 961 8 jours 12 septembre 2019 16:39:27 Rva demo_rva_3 (id:22) 0.0 46 25.11 °C 40.29 %
2 836 958 8 jours 12 septembre 2019 16:36:25 Rva demo_rva_3 (id:22) 0.0 46 25.12 °C 40.34 %
2 836 953 8 jours 12 septembre 2019 16:33:22 Rva demo_rva_3 (id:22) 0.0 46 25.1 °C 40.34 %
2 836 952 8 jours 12 septembre 2019 16:31:18 Rva demo_rva_3 (id:22) 0.0 46 25.1 °C 40.44 %
2 836 947 8 jours 12 septembre 2019 16:27:28 Rva demo_rva_3 (id:22) 0.0 46 25.08 °C 40.36 %
2 836 943 8 jours 12 septembre 2019 16:24:34 Rva demo_rva_3 (id:22) 1.0 46 25.08 °C 40.41 %
2 836 940 8 jours 12 septembre 2019 16:21:23 Rva demo_rva_3 (id:22) 0.0 46 25.08 °C 40.49 %
2 836 935 8 jours 12 septembre 2019 16:18:19 Rva demo_rva_3 (id:22) 0.0 46 25.08 °C 40.5 %
2 836 933 8 jours 12 septembre 2019 16:15:41 Rva demo_rva_3 (id:22) 0.0 46 25.08 °C 40.49 %
2 836 928 8 jours 12 septembre 2019 16:12:25 Rva demo_rva_3 (id:22) 1.0 46 25.04 °C 40.57 %
2 836 925 8 jours 12 septembre 2019 16:09:29 Rva demo_rva_3 (id:22) 1.0 46 25.05 °C 40.52 %
2 836 922 8 jours 12 septembre 2019 16:06:40 Rva demo_rva_3 (id:22) 1.0 46 25.07 °C 40.64 %
2 836 914 8 jours 12 septembre 2019 15:57:36 Rva demo_rva_3 (id:22) 0.0 46 25.05 °C 40.61 %
2 836 910 8 jours 12 septembre 2019 15:54:41 Rva demo_rva_3 (id:22) 1.0 46 25.08 °C 40.74 %
2 836 907 8 jours 12 septembre 2019 15:51:35 Rva demo_rva_3 (id:22) 0.0 46 25.07 °C 40.58 %
2 836 903 8 jours 12 septembre 2019 15:48:46 Rva demo_rva_3 (id:22) 1.0 46 25.08 °C 40.66 %
2 836 899 8 jours 12 septembre 2019 15:45:54 Rva demo_rva_3 (id:22) 0.0 46 25.05 °C 40.69 %
2 836 895 8 jours 12 septembre 2019 15:42:31 Rva demo_rva_3 (id:22) 0.0 46 25.04 °C 40.63 %
2 836 892 8 jours 12 septembre 2019 15:39:39 Rva demo_rva_3 (id:22) 0.0 46 25.05 °C 40.62 %
2 836 888 8 jours 12 septembre 2019 15:36:32 Rva demo_rva_3 (id:22) 0.0 46 25.05 °C 40.73 %
2 836 885 8 jours 12 septembre 2019 15:33:43 Rva demo_rva_3 (id:22) 1.0 46 25.05 °C 40.75 %
2 836 882 8 jours 12 septembre 2019 15:31:21 Rva demo_rva_3 (id:22) 2.0 46 25.05 °C 40.76 %
2 836 878 8 jours 12 septembre 2019 15:27:34 Rva demo_rva_3 (id:22) 0.0 46 25.05 °C 40.71 %
2 836 873 8 jours 12 septembre 2019 15:24:36 Rva demo_rva_3 (id:22) 0.0 46 25.07 °C 40.71 %
2 836 870 8 jours 12 septembre 2019 15:21:33 Rva demo_rva_3 (id:22) 0.0 45 25.07 °C 40.74 %
2 836 867 8 jours 12 septembre 2019 15:18:49 Rva demo_rva_3 (id:22) 0.0 45 25.05 °C 40.92 %
2 836 864 8 jours 12 septembre 2019 15:15:47 Rva demo_rva_3 (id:22) 1.0 44 25.05 °C 41.24 %
2 836 860 8 jours 12 septembre 2019 15:12:34 Rva demo_rva_3 (id:22) 0.0 44 25.01 °C 41.12 %
2 836 856 8 jours 12 septembre 2019 15:09:46 Rva demo_rva_3 (id:22) 2.0 44 25.0 °C 41.28 %
2 836 852 8 jours 12 septembre 2019 15:06:45 Rva demo_rva_3 (id:22) 0.0 44 25.04 °C 41.41 %
2 836 849 8 jours 12 septembre 2019 15:03:39 Rva demo_rva_3 (id:22) 1.0 41 25.05 °C 41.55 %
2 836 846 8 jours 12 septembre 2019 15:01:15 Rva demo_rva_3 (id:22) 0.0 41 25.04 °C 41.02 %
2 836 842 8 jours 12 septembre 2019 14:57:35 Rva demo_rva_3 (id:22) 1.0 42 25.01 °C 40.04 %
2 836 838 8 jours 12 septembre 2019 14:54:46 Rva demo_rva_3 (id:22) 0.0 41 25.01 °C 40.05 %
2 836 834 8 jours 12 septembre 2019 14:51:31 Rva demo_rva_3 (id:22) 1.0 40 25.0 °C 40.1 %
2 836 830 8 jours 12 septembre 2019 14:48:38 Rva demo_rva_3 (id:22) 0.0 39 25.01 °C 40.45 %
2 836 827 8 jours 12 septembre 2019 14:45:46 Rva demo_rva_3 (id:22) 1.0 40 24.97 °C 40.1 %
2 836 823 8 jours 12 septembre 2019 14:42:35 Rva demo_rva_3 (id:22) 2.0 41 24.99 °C 39.96 %
2 836 820 8 jours 12 septembre 2019 14:39:47 Rva demo_rva_3 (id:22) 1.0 41 24.99 °C 39.97 %
2 836 817 8 jours 12 septembre 2019 14:36:43 Rva demo_rva_3 (id:22) 0.0 41 24.99 °C 39.96 %
2 836 813 8 jours 12 septembre 2019 14:33:45 Rva demo_rva_3 (id:22) 0.0 40 25.0 °C 40.09 %
2 836 809 8 jours 12 septembre 2019 14:31:13 Rva demo_rva_3 (id:22) 0.0 41 24.96 °C 40.03 %
2 836 805 8 jours 12 septembre 2019 14:27:28 Rva demo_rva_3 (id:22) 0.0 41 24.96 °C 39.98 %
2 836 801 8 jours 12 septembre 2019 14:24:41 Rva demo_rva_3 (id:22) 0.0 40 24.96 °C 39.93 %
2 836 799 8 jours 12 septembre 2019 14:21:37 Rva demo_rva_3 (id:22) 1.0 40 24.97 °C 40.05 %
2 836 793 8 jours 12 septembre 2019 14:18:20 Rva demo_rva_3 (id:22) 0.0 40 24.96 °C 40.03 %
2 836 791 8 jours 12 septembre 2019 14:15:46 Rva demo_rva_3 (id:22) 0.0 40 24.96 °C 39.92 %
2 836 786 8 jours 12 septembre 2019 14:12:22 Rva demo_rva_3 (id:22) 0.0 40 24.96 °C 40.06 %
2 836 783 8 jours 12 septembre 2019 14:09:30 Rva demo_rva_3 (id:22) 0.0 40 24.93 °C 40.13 %
2 836 780 8 jours 12 septembre 2019 14:06:38 Rva demo_rva_3 (id:22) 0.0 39 24.92 °C 40.18 %
2 836 777 8 jours 12 septembre 2019 14:03:36 Rva demo_rva_3 (id:22) 0.0 39 24.93 °C 40.16 %
2 836 773 8 jours 12 septembre 2019 14:01:36 Rva demo_rva_3 (id:22) 1.0 39 24.93 °C 40.18 %
2 836 770 8 jours 12 septembre 2019 13:57:40 Rva demo_rva_3 (id:22) 0.0 39 24.92 °C 40.21 %
2 836 764 8 jours 12 septembre 2019 13:54:39 Rva demo_rva_3 (id:22) 1.0 39 24.92 °C 40.21 %
2 836 762 8 jours 12 septembre 2019 13:51:35 Rva demo_rva_3 (id:22) 0.0 39 24.92 °C 40.16 %
2 836 758 8 jours 12 septembre 2019 13:48:45 Rva demo_rva_3 (id:22) 1.0 39 24.89 °C 40.17 %
2 836 755 8 jours 12 septembre 2019 13:45:51 Rva demo_rva_3 (id:22) 1.0 38 24.9 °C 40.29 %
2 836 750 8 jours 12 septembre 2019 13:42:30 Rva demo_rva_3 (id:22) 0.0 38 24.9 °C 40.31 %
2 836 747 8 jours 12 septembre 2019 13:39:31 Rva demo_rva_3 (id:22) 0.0 38 24.89 °C 40.34 %
2 836 745 8 jours 12 septembre 2019 13:37:22 Rva demo_rva_3 (id:22) 0.0 38 24.89 °C 40.35 %
2 836 740 8 jours 12 septembre 2019 13:33:38 Rva demo_rva_3 (id:22) 1.0 38 24.86 °C 40.45 %
2 836 738 8 jours 12 septembre 2019 13:31:30 Rva demo_rva_3 (id:22) 0.0 37 24.86 °C 40.47 %
2 836 733 8 jours 12 septembre 2019 13:27:37 Rva demo_rva_3 (id:22) 0.0 38 24.85 °C 40.51 %
2 836 728 8 jours 12 septembre 2019 13:24:29 Rva demo_rva_3 (id:22) 1.0 38 24.83 °C 40.44 %
2 836 721 8 jours 12 septembre 2019 13:15:36 Rva demo_rva_3 (id:22) 0.0 36 24.83 °C 40.54 %
2 836 716 8 jours 12 septembre 2019 13:12:34 Rva demo_rva_3 (id:22) 0.0 36 24.82 °C 40.61 %
2 836 714 8 jours 12 septembre 2019 13:09:31 Rva demo_rva_3 (id:22) 1.0 36 24.82 °C 40.59 %
2 836 709 8 jours 12 septembre 2019 13:06:29 Rva demo_rva_3 (id:22) 0.0 36 24.79 °C 40.68 %
2 836 707 8 jours 12 septembre 2019 13:03:42 Rva demo_rva_3 (id:22) 1.0 36 24.79 °C 40.62 %
2 836 703 8 jours 12 septembre 2019 13:01:26 Rva demo_rva_3 (id:22) 1.0 35 24.76 °C 40.79 %
2 836 700 8 jours 12 septembre 2019 12:57:26 Rva demo_rva_3 (id:22) 0.0 34 24.76 °C 40.92 %
2 836 695 8 jours 12 septembre 2019 12:54:33 Rva demo_rva_3 (id:22) 0.0 34 24.75 °C 41.05 %
2 836 693 8 jours 12 septembre 2019 12:51:36 Rva demo_rva_3 (id:22) 0.0 34 24.72 °C 41.12 %
2 836 689 8 jours 12 septembre 2019 12:48:40 Rva demo_rva_3 (id:22) 0.0 33 24.69 °C 41.25 %
2 836 685 8 jours 12 septembre 2019 12:45:50 Rva demo_rva_3 (id:22) 0.0 34 24.72 °C 41.2 %
2 836 682 8 jours 12 septembre 2019 12:42:36 Rva demo_rva_3 (id:22) 0.0 33 24.66 °C 41.3 %
2 836 678 8 jours 12 septembre 2019 12:39:39 Rva demo_rva_3 (id:22) 0.0 32 24.66 °C 41.5 %
2 836 673 8 jours 12 septembre 2019 12:36:32 Rva demo_rva_3 (id:22) 1.0 32 24.63 °C 41.59 %
2 836 671 8 jours 12 septembre 2019 12:33:34 Rva demo_rva_3 (id:22) 1.0 32 24.61 °C 41.75 %
2 836 668 8 jours 12 septembre 2019 12:31:21 Rva demo_rva_3 (id:22) 1.0 31 24.58 °C 41.98 %
2 836 664 8 jours 12 septembre 2019 12:27:28 Rva demo_rva_3 (id:22) 0.0 31 24.52 °C 42.09 %
2 836 660 8 jours 12 septembre 2019 12:24:42 Rva demo_rva_3 (id:22) 0.0 30 24.48 °C 42.26 %
2 836 657 8 jours 12 septembre 2019 12:21:29 Rva demo_rva_3 (id:22) 0.0 29 24.42 °C 42.67 %
2 836 653 8 jours 12 septembre 2019 12:18:42 Rva demo_rva_3 (id:22) 1.0 27 24.37 °C 43.05 %
2 836 649 8 jours 12 septembre 2019 12:15:41 Rva demo_rva_3 (id:22) 0.0 24 24.33 °C 44.29 %
2 836 644 8 jours 12 septembre 2019 12:12:31 Rva demo_rva_3 (id:22) 1.0 24 24.28 °C 44.57 %
2 836 642 8 jours 12 septembre 2019 12:09:34 Rva demo_rva_3 (id:22) 0.0 24 24.28 °C 44.56 %
2 836 637 8 jours 12 septembre 2019 12:06:23 Rva demo_rva_3 (id:22) 0.0 24 24.27 °C 44.54 %
PM: 0..9 Good 10..19 Not so bad 20..49 Bad >= 50 Escape!
Temperature: 0..17 Cold 18..21 Nice 22..26 Warm > 26 Hot!


COV: 0..199 Clean 200..399 Good 400..599 Bad >= 600 Escape!
Humidity: 0..20 21..40 41..60 61..80 > 81..100